sensor_id;sensor_type;location;lat;lon;timestamp;P1;durP1;ratioP1;P2;durP2;ratioP2
18188;SDS011;9219;50.396;8.546;2023-07-24T00:00:50;1.53;;;1.20;;
18188;SDS011;9219;50.396;8.546;2023-07-24T00:03:18;1.60;;;1.30;;
18188;SDS011;9219;50.396;8.546;2023-07-24T00:05:46;2.17;;;1.77;;
18188;SDS011;9219;50.396;8.546;2023-07-24T00:08:16;1.70;;;1.33;;
18188;SDS011;9219;50.396;8.546;2023-07-24T00:10:44;2.17;;;1.27;;
18188;SDS011;9219;50.396;8.546;2023-07-24T00:13:12;4.10;;;1.40;;
18188;SDS011;9219;50.396;8.546;2023-07-24T00:15:40;2.53;;;1.80;;
18188;SDS011;9219;50.396;8.546;2023-07-24T00:23:13;2.50;;;1.73;;
18188;SDS011;9219;50.396;8.546;2023-07-24T00:25:41;2.93;;;1.87;;
18188;SDS011;9219;50.396;8.546;2023-07-24T00:28:10;2.03;;;1.40;;
18188;SDS011;9219;50.396;8.546;2023-07-24T00:30:37;4.50;;;1.93;;
18188;SDS011;9219;50.396;8.546;2023-07-24T00:33:06;5.43;;;1.70;;
18188;SDS011;9219;50.396;8.546;2023-07-24T00:35:34;4.50;;;1.83;;
18188;SDS011;9219;50.396;8.546;2023-07-24T00:38:01;1.63;;;1.40;;
18188;SDS011;9219;50.396;8.546;2023-07-24T00:40:30;2.33;;;1.50;;
18188;SDS011;9219;50.396;8.546;2023-07-24T00:48:09;2.27;;;1.27;;
18188;SDS011;9219;50.396;8.546;2023-07-24T00:50:37;3.53;;;1.53;;
18188;SDS011;9219;50.396;8.546;2023-07-24T00:53:05;4.23;;;1.60;;
18188;SDS011;9219;50.396;8.546;2023-07-24T00:55:33;3.30;;;1.60;;
18188;SDS011;9219;50.396;8.546;2023-07-24T00:58:01;1.87;;;1.30;;
18188;SDS011;9219;50.396;8.546;2023-07-24T01:00:30;4.90;;;1.70;;
18188;SDS011;9219;50.396;8.546;2023-07-24T01:02:58;2.33;;;1.97;;
18188;SDS011;9219;50.396;8.546;2023-07-24T01:08:21;4.07;;;1.80;;
18188;SDS011;9219;50.396;8.546;2023-07-24T01:10:49;2.67;;;1.43;;
18188;SDS011;9219;50.396;8.546;2023-07-24T01:13:18;4.20;;;1.60;;
18188;SDS011;9219;50.396;8.546;2023-07-24T01:15:50;2.43;;;1.60;;
18188;SDS011;9219;50.396;8.546;2023-07-24T01:18:23;4.20;;;1.57;;
18188;SDS011;9219;50.396;8.546;2023-07-24T01:20:54;6.30;;;1.73;;
18188;SDS011;9219;50.396;8.546;2023-07-24T01:23:32;1.90;;;1.37;;
18188;SDS011;9219;50.396;8.546;2023-07-24T01:31:17;4.37;;;1.70;;
18188;SDS011;9219;50.396;8.546;2023-07-24T01:33:45;1.80;;;1.20;;
18188;SDS011;9219;50.396;8.546;2023-07-24T01:36:14;1.73;;;1.50;;
18188;SDS011;9219;50.396;8.546;2023-07-24T01:38:42;2.27;;;1.53;;
18188;SDS011;9219;50.396;8.546;2023-07-24T01:41:11;3.00;;;1.90;;
18188;SDS011;9219;50.396;8.546;2023-07-24T01:43:38;3.63;;;1.90;;
18188;SDS011;9219;50.396;8.546;2023-07-24T01:46:06;2.40;;;1.90;;
18188;SDS011;9219;50.396;8.546;2023-07-24T01:51:17;2.20;;;1.70;;
18188;SDS011;9219;50.396;8.546;2023-07-24T01:53:46;3.93;;;1.70;;
18188;SDS011;9219;50.396;8.546;2023-07-24T01:56:14;3.17;;;1.80;;
18188;SDS011;9219;50.396;8.546;2023-07-24T01:58:41;1.90;;;1.57;;
18188;SDS011;9219;50.396;8.546;2023-07-24T02:01:10;3.40;;;2.07;;
18188;SDS011;9219;50.396;8.546;2023-07-24T02:03:38;4.10;;;2.10;;
18188;SDS011;9219;50.396;8.546;2023-07-24T02:06:06;3.27;;;2.10;;
18188;SDS011;9219;50.396;8.546;2023-07-24T02:12:14;2.97;;;1.97;;
18188;SDS011;9219;50.396;8.546;2023-07-24T02:14:42;2.70;;;2.03;;
18188;SDS011;9219;50.396;8.546;2023-07-24T02:17:10;4.70;;;2.00;;
18188;SDS011;9219;50.396;8.546;2023-07-24T02:19:41;6.53;;;2.17;;
18188;SDS011;9219;50.396;8.546;2023-07-24T02:22:09;9.90;;;1.70;;
18188;SDS011;9219;50.396;8.546;2023-07-24T02:24:36;2.53;;;1.60;;
18188;SDS011;9219;50.396;8.546;2023-07-24T02:27:05;6.67;;;2.03;;
18188;SDS011;9219;50.396;8.546;2023-07-24T02:32:14;2.63;;;2.10;;
18188;SDS011;9219;50.396;8.546;2023-07-24T02:34:42;2.93;;;2.20;;
18188;SDS011;9219;50.396;8.546;2023-07-24T02:37:10;2.40;;;1.67;;
18188;SDS011;9219;50.396;8.546;2023-07-24T02:39:38;2.43;;;1.57;;
18188;SDS011;9219;50.396;8.546;2023-07-24T02:42:06;2.63;;;1.97;;
18188;SDS011;9219;50.396;8.546;2023-07-24T02:44:34;3.60;;;2.13;;
18188;SDS011;9219;50.396;8.546;2023-07-24T02:47:02;4.70;;;2.33;;
18188;SDS011;9219;50.396;8.546;2023-07-24T02:54:59;3.00;;;2.20;;
18188;SDS011;9219;50.396;8.546;2023-07-24T02:57:27;3.80;;;2.07;;
18188;SDS011;9219;50.396;8.546;2023-07-24T02:59:55;2.93;;;2.13;;
18188;SDS011;9219;50.396;8.546;2023-07-24T03:02:22;6.83;;;2.47;;
18188;SDS011;9219;50.396;8.546;2023-07-24T03:04:50;3.23;;;2.43;;
18188;SDS011;9219;50.396;8.546;2023-07-24T03:07:18;4.17;;;2.30;;
18188;SDS011;9219;50.396;8.546;2023-07-24T03:09:46;3.07;;;2.30;;
18188;SDS011;9219;50.396;8.546;2023-07-24T03:12:15;5.37;;;2.30;;
18188;SDS011;9219;50.396;8.546;2023-07-24T03:19:48;3.73;;;2.37;;
18188;SDS011;9219;50.396;8.546;2023-07-24T03:22:16;3.60;;;2.07;;
18188;SDS011;9219;50.396;8.546;2023-07-24T03:24:44;2.73;;;1.93;;
18188;SDS011;9219;50.396;8.546;2023-07-24T03:27:12;5.33;;;2.30;;
18188;SDS011;9219;50.396;8.546;2023-07-24T03:29:40;3.77;;;1.70;;
18188;SDS011;9219;50.396;8.546;2023-07-24T03:32:08;3.30;;;1.97;;
18188;SDS011;9219;50.396;8.546;2023-07-24T03:34:36;5.83;;;2.33;;
18188;SDS011;9219;50.396;8.546;2023-07-24T03:37:05;4.87;;;1.90;;
18188;SDS011;9219;50.396;8.546;2023-07-24T03:43:26;6.93;;;2.53;;
18188;SDS011;9219;50.396;8.546;2023-07-24T03:45:54;3.73;;;2.33;;
18188;SDS011;9219;50.396;8.546;2023-07-24T03:48:22;4.23;;;2.70;;
18188;SDS011;9219;50.396;8.546;2023-07-24T03:50:57;6.00;;;2.67;;
18188;SDS011;9219;50.396;8.546;2023-07-24T03:53:25;3.67;;;2.60;;
18188;SDS011;9219;50.396;8.546;2023-07-24T03:55:54;4.20;;;2.27;;
18188;SDS011;9219;50.396;8.546;2023-07-24T03:58:22;5.90;;;2.40;;
18188;SDS011;9219;50.396;8.546;2023-07-24T04:03:34;5.73;;;2.50;;
18188;SDS011;9219;50.396;8.546;2023-07-24T04:06:02;3.43;;;2.50;;
18188;SDS011;9219;50.396;8.546;2023-07-24T04:08:29;3.33;;;2.17;;
18188;SDS011;9219;50.396;8.546;2023-07-24T04:10:57;2.47;;;1.97;;
18188;SDS011;9219;50.396;8.546;2023-07-24T04:13:25;5.07;;;2.50;;
18188;SDS011;9219;50.396;8.546;2023-07-24T04:15:53;3.63;;;2.20;;
18188;SDS011;9219;50.396;8.546;2023-07-24T04:18:22;5.87;;;2.53;;
18188;SDS011;9219;50.396;8.546;2023-07-24T04:25:54;4.80;;;2.30;;
18188;SDS011;9219;50.396;8.546;2023-07-24T04:28:22;5.73;;;2.70;;
18188;SDS011;9219;50.396;8.546;2023-07-24T04:30:49;4.23;;;2.53;;
18188;SDS011;9219;50.396;8.546;2023-07-24T04:33:18;3.27;;;2.10;;
18188;SDS011;9219;50.396;8.546;2023-07-24T04:35:47;2.93;;;2.30;;
18188;SDS011;9219;50.396;8.546;2023-07-24T04:38:15;5.57;;;2.67;;
18188;SDS011;9219;50.396;8.546;2023-07-24T04:40:43;3.87;;;2.53;;
18188;SDS011;9219;50.396;8.546;2023-07-24T04:43:13;4.50;;;2.40;;
18188;SDS011;9219;50.396;8.546;2023-07-24T04:47:07;5.20;;;2.47;;
18188;SDS011;9219;50.396;8.546;2023-07-24T04:49:35;4.43;;;2.70;;
18188;SDS011;9219;50.396;8.546;2023-07-24T04:52:03;5.47;;;3.07;;
18188;SDS011;9219;50.396;8.546;2023-07-24T04:54:31;3.77;;;2.67;;
18188;SDS011;9219;50.396;8.546;2023-07-24T04:57:02;3.73;;;2.73;;
18188;SDS011;9219;50.396;8.546;2023-07-24T04:59:29;3.90;;;2.23;;
18188;SDS011;9219;50.396;8.546;2023-07-24T05:01:57;4.17;;;2.30;;
18188;SDS011;9219;50.396;8.546;2023-07-24T05:07:04;5.43;;;2.57;;
18188;SDS011;9219;50.396;8.546;2023-07-24T05:09:32;5.13;;;2.83;;
18188;SDS011;9219;50.396;8.546;2023-07-24T05:11:59;4.37;;;2.70;;
18188;SDS011;9219;50.396;8.546;2023-07-24T05:14:27;3.10;;;2.27;;
18188;SDS011;9219;50.396;8.546;2023-07-24T05:16:55;5.03;;;2.70;;
18188;SDS011;9219;50.396;8.546;2023-07-24T05:19:22;6.07;;;2.30;;
18188;SDS011;9219;50.396;8.546;2023-07-24T05:21:50;2.53;;;2.10;;
18188;SDS011;9219;50.396;8.546;2023-07-24T05:24:19;20.27;;;4.03;;
18188;SDS011;9219;50.396;8.546;2023-07-24T05:32:08;4.30;;;2.63;;
18188;SDS011;9219;50.396;8.546;2023-07-24T05:34:36;2.33;;;2.10;;
18188;SDS011;9219;50.396;8.546;2023-07-24T05:37:05;3.93;;;2.43;;
18188;SDS011;9219;50.396;8.546;2023-07-24T05:39:33;6.27;;;2.53;;
18188;SDS011;9219;50.396;8.546;2023-07-24T05:42:01;4.67;;;2.60;;
18188;SDS011;9219;50.396;8.546;2023-07-24T05:44:29;5.17;;;2.10;;
18188;SDS011;9219;50.396;8.546;2023-07-24T05:46:59;2.47;;;1.90;;
18188;SDS011;9219;50.396;8.546;2023-07-24T05:52:07;4.63;;;2.77;;
18188;SDS011;9219;50.396;8.546;2023-07-24T05:54:35;4.10;;;3.07;;
18188;SDS011;9219;50.396;8.546;2023-07-24T05:57:03;3.67;;;2.63;;
18188;SDS011;9219;50.396;8.546;2023-07-24T05:59:32;3.97;;;2.77;;
18188;SDS011;9219;50.396;8.546;2023-07-24T06:01:59;3.27;;;2.40;;
18188;SDS011;9219;50.396;8.546;2023-07-24T06:04:28;3.53;;;2.17;;
18188;SDS011;9219;50.396;8.546;2023-07-24T06:06:56;4.00;;;2.40;;
18188;SDS011;9219;50.396;8.546;2023-07-24T06:14:34;5.50;;;2.67;;
18188;SDS011;9219;50.396;8.546;2023-07-24T06:17:02;5.17;;;2.90;;
18188;SDS011;9219;50.396;8.546;2023-07-24T06:19:30;3.17;;;2.23;;
18188;SDS011;9219;50.396;8.546;2023-07-24T06:21:58;5.03;;;2.90;;
18188;SDS011;9219;50.396;8.546;2023-07-24T06:24:26;3.83;;;2.70;;
18188;SDS011;9219;50.396;8.546;2023-07-24T06:26:54;4.20;;;2.63;;
18188;SDS011;9219;50.396;8.546;2023-07-24T06:29:22;3.60;;;2.63;;
18188;SDS011;9219;50.396;8.546;2023-07-24T06:34:35;4.43;;;2.57;;
18188;SDS011;9219;50.396;8.546;2023-07-24T06:37:04;3.50;;;2.40;;
18188;SDS011;9219;50.396;8.546;2023-07-24T06:39:47;4.00;;;2.70;;
18188;SDS011;9219;50.396;8.546;2023-07-24T06:42:15;2.93;;;2.23;;
18188;SDS011;9219;50.396;8.546;2023-07-24T06:44:43;2.80;;;2.10;;
18188;SDS011;9219;50.396;8.546;2023-07-24T06:47:11;4.30;;;2.67;;
18188;SDS011;9219;50.396;8.546;2023-07-24T06:49:40;4.07;;;2.33;;
18188;SDS011;9219;50.396;8.546;2023-07-24T06:52:08;5.50;;;2.37;;
18188;SDS011;9219;50.396;8.546;2023-07-24T06:59:44;3.90;;;3.00;;
18188;SDS011;9219;50.396;8.546;2023-07-24T07:02:12;8.20;;;3.60;;
18188;SDS011;9219;50.396;8.546;2023-07-24T07:04:40;5.33;;;2.97;;
18188;SDS011;9219;50.396;8.546;2023-07-24T07:07:08;3.10;;;2.47;;
18188;SDS011;9219;50.396;8.546;2023-07-24T07:09:36;5.33;;;2.40;;
18188;SDS011;9219;50.396;8.546;2023-07-24T07:12:04;8.77;;;3.43;;
18188;SDS011;9219;50.396;8.546;2023-07-24T07:14:36;5.83;;;2.93;;
18188;SDS011;9219;50.396;8.546;2023-07-24T07:20:58;6.70;;;2.83;;
18188;SDS011;9219;50.396;8.546;2023-07-24T07:23:26;3.60;;;2.73;;
18188;SDS011;9219;50.396;8.546;2023-07-24T07:25:54;7.00;;;3.17;;
18188;SDS011;9219;50.396;8.546;2023-07-24T07:28:22;3.77;;;2.73;;
18188;SDS011;9219;50.396;8.546;2023-07-24T07:30:50;6.47;;;2.97;;
18188;SDS011;9219;50.396;8.546;2023-07-24T07:33:18;6.17;;;3.47;;
18188;SDS011;9219;50.396;8.546;2023-07-24T07:35:48;4.90;;;3.10;;
18188;SDS011;9219;50.396;8.546;2023-07-24T07:41:19;4.17;;;2.77;;
18188;SDS011;9219;50.396;8.546;2023-07-24T07:43:47;4.70;;;3.03;;
18188;SDS011;9219;50.396;8.546;2023-07-24T07:46:15;4.10;;;2.90;;
18188;SDS011;9219;50.396;8.546;2023-07-24T07:48:43;3.83;;;2.97;;
18188;SDS011;9219;50.396;8.546;2023-07-24T07:51:12;6.40;;;2.90;;
18188;SDS011;9219;50.396;8.546;2023-07-24T07:53:40;7.23;;;4.10;;
18188;SDS011;9219;50.396;8.546;2023-07-24T07:56:08;5.67;;;3.23;;
18188;SDS011;9219;50.396;8.546;2023-07-24T07:58:38;7.23;;;2.90;;
18188;SDS011;9219;50.396;8.546;2023-07-24T08:02:23;3.97;;;3.10;;
18188;SDS011;9219;50.396;8.546;2023-07-24T08:04:53;5.37;;;2.80;;
18188;SDS011;9219;50.396;8.546;2023-07-24T08:07:24;7.03;;;2.90;;
18188;SDS011;9219;50.396;8.546;2023-07-24T08:09:53;7.33;;;4.00;;
18188;SDS011;9219;50.396;8.546;2023-07-24T08:12:22;4.63;;;3.27;;
18188;SDS011;9219;50.396;8.546;2023-07-24T08:14:50;3.30;;;2.33;;
18188;SDS011;9219;50.396;8.546;2023-07-24T08:17:19;5.03;;;3.27;;
18188;SDS011;9219;50.396;8.546;2023-07-24T08:22:33;5.83;;;3.13;;
18188;SDS011;9219;50.396;8.546;2023-07-24T08:25:01;3.80;;;2.77;;
18188;SDS011;9219;50.396;8.546;2023-07-24T08:27:30;4.73;;;2.70;;
18188;SDS011;9219;50.396;8.546;2023-07-24T08:30:01;5.80;;;2.70;;
18188;SDS011;9219;50.396;8.546;2023-07-24T08:32:30;4.40;;;3.00;;
18188;SDS011;9219;50.396;8.546;2023-07-24T08:34:58;5.90;;;3.27;;
18188;SDS011;9219;50.396;8.546;2023-07-24T08:37:27;6.37;;;3.60;;
18188;SDS011;9219;50.396;8.546;2023-07-24T08:42:39;3.80;;;2.80;;
18188;SDS011;9219;50.396;8.546;2023-07-24T08:45:09;5.37;;;2.77;;
18188;SDS011;9219;50.396;8.546;2023-07-24T08:47:41;5.20;;;2.97;;
18188;SDS011;9219;50.396;8.546;2023-07-24T08:50:11;4.60;;;2.90;;
18188;SDS011;9219;50.396;8.546;2023-07-24T08:52:39;8.83;;;4.30;;
18188;SDS011;9219;50.396;8.546;2023-07-24T08:55:08;4.47;;;2.67;;
18188;SDS011;9219;50.396;8.546;2023-07-24T08:57:37;3.93;;;2.90;;
18188;SDS011;9219;50.396;8.546;2023-07-24T09:03:11;3.90;;;2.93;;
18188;SDS011;9219;50.396;8.546;2023-07-24T09:05:40;7.23;;;3.10;;
18188;SDS011;9219;50.396;8.546;2023-07-24T09:08:08;3.60;;;2.80;;
18188;SDS011;9219;50.396;8.546;2023-07-24T09:10:37;4.70;;;2.50;;
18188;SDS011;9219;50.396;8.546;2023-07-24T09:13:05;8.07;;;3.23;;
18188;SDS011;9219;50.396;8.546;2023-07-24T09:15:40;5.17;;;3.87;;
18188;SDS011;9219;50.396;8.546;2023-07-24T09:18:09;4.63;;;2.57;;
18188;SDS011;9219;50.396;8.546;2023-07-24T09:20:39;4.50;;;3.00;;
18188;SDS011;9219;50.396;8.546;2023-07-24T09:28:34;4.33;;;2.83;;
18188;SDS011;9219;50.396;8.546;2023-07-24T09:31:02;6.70;;;3.90;;
18188;SDS011;9219;50.396;8.546;2023-07-24T09:33:35;6.97;;;2.90;;
18188;SDS011;9219;50.396;8.546;2023-07-24T09:36:04;7.47;;;2.80;;
18188;SDS011;9219;50.396;8.546;2023-07-24T09:38:34;4.63;;;2.97;;
18188;SDS011;9219;50.396;8.546;2023-07-24T09:41:03;4.73;;;3.37;;
18188;SDS011;9219;50.396;8.546;2023-07-24T09:43:32;7.27;;;2.97;;
18188;SDS011;9219;50.396;8.546;2023-07-24T09:50:45;5.20;;;2.67;;
18188;SDS011;9219;50.396;8.546;2023-07-24T09:53:17;8.40;;;3.03;;
18188;SDS011;9219;50.396;8.546;2023-07-24T09:55:49;14.17;;;3.83;;
18188;SDS011;9219;50.396;8.546;2023-07-24T09:58:23;8.50;;;3.10;;
18188;SDS011;9219;50.396;8.546;2023-07-24T10:00:52;6.03;;;2.63;;
18188;SDS011;9219;50.396;8.546;2023-07-24T10:03:20;4.77;;;3.30;;
18188;SDS011;9219;50.396;8.546;2023-07-24T10:05:50;4.07;;;3.17;;
18188;SDS011;9219;50.396;8.546;2023-07-24T10:11:17;5.07;;;3.20;;
18188;SDS011;9219;50.396;8.546;2023-07-24T10:13:46;3.00;;;2.27;;
18188;SDS011;9219;50.396;8.546;2023-07-24T10:16:14;4.03;;;2.97;;
18188;SDS011;9219;50.396;8.546;2023-07-24T10:18:44;4.00;;;2.70;;
18188;SDS011;9219;50.396;8.546;2023-07-24T10:21:14;4.17;;;2.90;;
18188;SDS011;9219;50.396;8.546;2023-07-24T10:23:42;6.53;;;2.90;;
18188;SDS011;9219;50.396;8.546;2023-07-24T10:26:12;4.90;;;2.93;;
18188;SDS011;9219;50.396;8.546;2023-07-24T10:33:49;4.30;;;3.27;;
18188;SDS011;9219;50.396;8.546;2023-07-24T10:36:18;5.17;;;2.93;;
18188;SDS011;9219;50.396;8.546;2023-07-24T10:38:52;5.40;;;3.03;;
18188;SDS011;9219;50.396;8.546;2023-07-24T10:41:21;6.23;;;2.93;;
18188;SDS011;9219;50.396;8.546;2023-07-24T10:43:49;4.20;;;2.90;;
18188;SDS011;9219;50.396;8.546;2023-07-24T10:46:21;6.97;;;2.50;;
18188;SDS011;9219;50.396;8.546;2023-07-24T10:48:51;6.37;;;2.87;;
18188;SDS011;9219;50.396;8.546;2023-07-24T10:56:24;4.63;;;2.60;;
18188;SDS011;9219;50.396;8.546;2023-07-24T10:58:52;5.77;;;2.73;;
18188;SDS011;9219;50.396;8.546;2023-07-24T11:01:21;5.73;;;2.87;;
18188;SDS011;9219;50.396;8.546;2023-07-24T11:03:50;4.07;;;2.63;;
18188;SDS011;9219;50.396;8.546;2023-07-24T11:06:19;4.47;;;2.93;;
18188;SDS011;9219;50.396;8.546;2023-07-24T11:08:50;7.33;;;3.70;;
18188;SDS011;9219;50.396;8.546;2023-07-24T11:11:19;4.23;;;2.77;;
18188;SDS011;9219;50.396;8.546;2023-07-24T11:16:28;3.57;;;2.80;;
18188;SDS011;9219;50.396;8.546;2023-07-24T11:18:57;2.87;;;2.27;;
18188;SDS011;9219;50.396;8.546;2023-07-24T11:21:25;3.47;;;2.80;;
18188;SDS011;9219;50.396;8.546;2023-07-24T11:23:55;6.70;;;2.70;;
18188;SDS011;9219;50.396;8.546;2023-07-24T11:26:24;5.40;;;3.10;;
18188;SDS011;9219;50.396;8.546;2023-07-24T11:28:56;6.13;;;3.07;;
18188;SDS011;9219;50.396;8.546;2023-07-24T11:31:24;4.27;;;2.90;;
18188;SDS011;9219;50.396;8.546;2023-07-24T11:36:40;3.90;;;2.53;;
18188;SDS011;9219;50.396;8.546;2023-07-24T11:39:08;7.80;;;2.93;;
18188;SDS011;9219;50.396;8.546;2023-07-24T11:41:36;3.70;;;2.70;;
18188;SDS011;9219;50.396;8.546;2023-07-24T11:44:05;4.57;;;2.90;;
18188;SDS011;9219;50.396;8.546;2023-07-24T11:46:33;5.57;;;3.33;;
18188;SDS011;9219;50.396;8.546;2023-07-24T11:49:01;3.60;;;3.00;;
18188;SDS011;9219;50.396;8.546;2023-07-24T11:51:29;5.00;;;3.40;;
18188;SDS011;9219;50.396;8.546;2023-07-24T11:59:11;5.60;;;3.33;;
18188;SDS011;9219;50.396;8.546;2023-07-24T12:01:40;5.07;;;3.23;;
18188;SDS011;9219;50.396;8.546;2023-07-24T12:04:12;6.47;;;3.67;;
18188;SDS011;9219;50.396;8.546;2023-07-24T12:06:40;8.20;;;3.50;;
18188;SDS011;9219;50.396;8.546;2023-07-24T12:09:10;4.60;;;3.03;;
18188;SDS011;9219;50.396;8.546;2023-07-24T12:11:40;6.27;;;3.07;;
18188;SDS011;9219;50.396;8.546;2023-07-24T12:14:14;4.13;;;3.20;;
18188;SDS011;9219;50.396;8.546;2023-07-24T12:21:51;9.07;;;4.50;;
18188;SDS011;9219;50.396;8.546;2023-07-24T12:24:20;5.93;;;3.43;;
18188;SDS011;9219;50.396;8.546;2023-07-24T12:26:48;4.30;;;3.27;;
18188;SDS011;9219;50.396;8.546;2023-07-24T12:29:22;5.57;;;3.33;;
18188;SDS011;9219;50.396;8.546;2023-07-24T12:31:52;4.27;;;3.20;;
18188;SDS011;9219;50.396;8.546;2023-07-24T12:34:22;4.97;;;3.33;;
18188;SDS011;9219;50.396;8.546;2023-07-24T12:36:52;5.13;;;3.23;;
18188;SDS011;9219;50.396;8.546;2023-07-24T12:39:20;3.33;;;3.00;;
18188;SDS011;9219;50.396;8.546;2023-07-24T12:46:19;3.83;;;3.10;;
18188;SDS011;9219;50.396;8.546;2023-07-24T12:48:46;5.63;;;4.10;;
18188;SDS011;9219;50.396;8.546;2023-07-24T12:51:14;6.67;;;3.60;;
18188;SDS011;9219;50.396;8.546;2023-07-24T12:53:42;4.80;;;3.17;;
18188;SDS011;9219;50.396;8.546;2023-07-24T12:56:31;3.90;;;3.10;;
18188;SDS011;9219;50.396;8.546;2023-07-24T12:58:59;5.63;;;2.90;;
18188;SDS011;9219;50.396;8.546;2023-07-24T13:01:28;6.33;;;3.23;;
18188;SDS011;9219;50.396;8.546;2023-07-24T13:08:59;4.30;;;2.90;;
18188;SDS011;9219;50.396;8.546;2023-07-24T13:11:26;3.60;;;3.13;;
18188;SDS011;9219;50.396;8.546;2023-07-24T13:13:54;3.00;;;2.60;;
18188;SDS011;9219;50.396;8.546;2023-07-24T13:16:22;4.70;;;3.30;;
18188;SDS011;9219;50.396;8.546;2023-07-24T13:18:50;5.53;;;2.83;;
18188;SDS011;9219;50.396;8.546;2023-07-24T13:21:17;3.13;;;2.60;;
18188;SDS011;9219;50.396;8.546;2023-07-24T13:23:46;3.10;;;2.50;;
18188;SDS011;9219;50.396;8.546;2023-07-24T13:26:15;4.30;;;3.03;;
18188;SDS011;9219;50.396;8.546;2023-07-24T13:29:14;4.83;;;3.20;;
18188;SDS011;9219;50.396;8.546;2023-07-24T13:31:41;4.93;;;2.63;;
18188;SDS011;9219;50.396;8.546;2023-07-24T13:34:09;7.37;;;3.43;;
18188;SDS011;9219;50.396;8.546;2023-07-24T13:36:36;5.13;;;3.00;;
18188;SDS011;9219;50.396;8.546;2023-07-24T13:39:05;11.77;;;3.63;;
18188;SDS011;9219;50.396;8.546;2023-07-24T13:41:33;3.10;;;2.20;;
18188;SDS011;9219;50.396;8.546;2023-07-24T13:44:02;3.97;;;2.50;;
18188;SDS011;9219;50.396;8.546;2023-07-24T13:46:31;4.77;;;3.07;;
18188;SDS011;9219;50.396;8.546;2023-07-24T13:50:13;3.60;;;2.57;;
18188;SDS011;9219;50.396;8.546;2023-07-24T13:52:41;4.60;;;2.30;;
18188;SDS011;9219;50.396;8.546;2023-07-24T13:55:09;3.53;;;2.70;;
18188;SDS011;9219;50.396;8.546;2023-07-24T13:57:36;3.40;;;2.50;;
18188;SDS011;9219;50.396;8.546;2023-07-24T14:00:04;5.07;;;2.93;;
18188;SDS011;9219;50.396;8.546;2023-07-24T14:02:32;3.80;;;2.70;;
18188;SDS011;9219;50.396;8.546;2023-07-24T14:05:02;2.60;;;2.40;;
18188;SDS011;9219;50.396;8.546;2023-07-24T14:07:31;3.13;;;2.43;;
18188;SDS011;9219;50.396;8.546;2023-07-24T14:15:04;4.60;;;3.00;;
18188;SDS011;9219;50.396;8.546;2023-07-24T14:17:33;3.40;;;2.30;;
18188;SDS011;9219;50.396;8.546;2023-07-24T14:20:01;3.10;;;2.53;;
18188;SDS011;9219;50.396;8.546;2023-07-24T14:22:29;5.57;;;2.80;;
18188;SDS011;9219;50.396;8.546;2023-07-24T14:24:57;3.00;;;2.53;;
18188;SDS011;9219;50.396;8.546;2023-07-24T14:27:24;3.93;;;2.20;;
18188;SDS011;9219;50.396;8.546;2023-07-24T14:29:52;2.60;;;1.93;;
18188;SDS011;9219;50.396;8.546;2023-07-24T14:35:46;2.80;;;1.93;;
18188;SDS011;9219;50.396;8.546;2023-07-24T14:38:14;2.63;;;1.80;;
18188;SDS011;9219;50.396;8.546;2023-07-24T14:40:41;4.43;;;2.00;;
18188;SDS011;9219;50.396;8.546;2023-07-24T14:43:10;3.17;;;2.10;;
18188;SDS011;9219;50.396;8.546;2023-07-24T14:45:39;3.00;;;1.90;;
18188;SDS011;9219;50.396;8.546;2023-07-24T14:48:06;2.00;;;1.80;;
18188;SDS011;9219;50.396;8.546;2023-07-24T14:50:36;2.53;;;1.70;;
18188;SDS011;9219;50.396;8.546;2023-07-24T14:58:13;3.27;;;1.20;;
18188;SDS011;9219;50.396;8.546;2023-07-24T15:00:41;1.27;;;1.03;;
18188;SDS011;9219;50.396;8.546;2023-07-24T15:03:12;1.53;;;1.00;;
18188;SDS011;9219;50.396;8.546;2023-07-24T15:05:40;1.33;;;1.00;;
18188;SDS011;9219;50.396;8.546;2023-07-24T15:08:07;1.30;;;1.10;;
18188;SDS011;9219;50.396;8.546;2023-07-24T15:10:34;1.10;;;0.87;;
18188;SDS011;9219;50.396;8.546;2023-07-24T15:13:02;2.27;;;0.73;;
18188;SDS011;9219;50.396;8.546;2023-07-24T15:18:09;1.13;;;0.80;;
18188;SDS011;9219;50.396;8.546;2023-07-24T15:20:37;1.27;;;0.83;;
18188;SDS011;9219;50.396;8.546;2023-07-24T15:23:05;1.27;;;1.03;;
18188;SDS011;9219;50.396;8.546;2023-07-24T15:25:35;1.00;;;0.90;;
18188;SDS011;9219;50.396;8.546;2023-07-24T15:28:03;3.47;;;0.70;;
18188;SDS011;9219;50.396;8.546;2023-07-24T15:30:31;0.83;;;0.83;;
18188;SDS011;9219;50.396;8.546;2023-07-24T15:32:59;1.03;;;0.93;;
18188;SDS011;9219;50.396;8.546;2023-07-24T15:38:21;1.07;;;0.97;;
18188;SDS011;9219;50.396;8.546;2023-07-24T15:40:49;6.67;;;1.20;;
18188;SDS011;9219;50.396;8.546;2023-07-24T15:43:16;3.33;;;1.33;;
18188;SDS011;9219;50.396;8.546;2023-07-24T15:45:44;1.20;;;0.83;;
18188;SDS011;9219;50.396;8.546;2023-07-24T15:48:12;1.50;;;0.67;;
18188;SDS011;9219;50.396;8.546;2023-07-24T15:50:45;0.87;;;0.87;;
18188;SDS011;9219;50.396;8.546;2023-07-24T15:53:13;0.83;;;0.77;;
18188;SDS011;9219;50.396;8.546;2023-07-24T16:00:45;1.20;;;0.80;;
18188;SDS011;9219;50.396;8.546;2023-07-24T16:03:13;0.70;;;0.70;;
18188;SDS011;9219;50.396;8.546;2023-07-24T16:05:41;1.70;;;0.90;;
18188;SDS011;9219;50.396;8.546;2023-07-24T16:08:08;3.80;;;1.03;;
18188;SDS011;9219;50.396;8.546;2023-07-24T16:10:36;0.87;;;0.87;;
18188;SDS011;9219;50.396;8.546;2023-07-24T16:13:03;1.30;;;1.00;;
18188;SDS011;9219;50.396;8.546;2023-07-24T16:15:31;1.20;;;0.90;;
18188;SDS011;9219;50.396;8.546;2023-07-24T16:20:46;6.93;;;1.40;;
18188;SDS011;9219;50.396;8.546;2023-07-24T16:23:14;1.53;;;1.10;;
18188;SDS011;9219;50.396;8.546;2023-07-24T16:25:42;1.30;;;1.00;;
18188;SDS011;9219;50.396;8.546;2023-07-24T16:28:10;1.20;;;1.03;;
18188;SDS011;9219;50.396;8.546;2023-07-24T16:30:40;1.47;;;1.20;;
18188;SDS011;9219;50.396;8.546;2023-07-24T16:33:08;3.27;;;1.00;;
18188;SDS011;9219;50.396;8.546;2023-07-24T16:35:39;1.33;;;1.20;;
18188;SDS011;9219;50.396;8.546;2023-07-24T16:41:15;1.40;;;0.90;;
18188;SDS011;9219;50.396;8.546;2023-07-24T16:43:43;1.53;;;0.90;;
18188;SDS011;9219;50.396;8.546;2023-07-24T16:46:12;1.77;;;1.17;;
18188;SDS011;9219;50.396;8.546;2023-07-24T16:48:42;1.47;;;1.00;;
18188;SDS011;9219;50.396;8.546;2023-07-24T16:51:13;1.03;;;0.87;;
18188;SDS011;9219;50.396;8.546;2023-07-24T16:53:44;1.50;;;1.10;;
18188;SDS011;9219;50.396;8.546;2023-07-24T16:56:11;4.63;;;1.33;;
18188;SDS011;9219;50.396;8.546;2023-07-24T17:03:39;3.70;;;1.00;;
18188;SDS011;9219;50.396;8.546;2023-07-24T17:06:07;4.00;;;1.37;;
18188;SDS011;9219;50.396;8.546;2023-07-24T17:08:35;0.93;;;0.83;;
18188;SDS011;9219;50.396;8.546;2023-07-24T17:11:03;2.17;;;1.17;;
18188;SDS011;9219;50.396;8.546;2023-07-24T17:13:31;1.37;;;0.87;;
18188;SDS011;9219;50.396;8.546;2023-07-24T17:16:00;1.50;;;1.03;;
18188;SDS011;9219;50.396;8.546;2023-07-24T17:18:27;1.20;;;1.10;;
18188;SDS011;9219;50.396;8.546;2023-07-24T17:20:57;1.13;;;1.00;;
18188;SDS011;9219;50.396;8.546;2023-07-24T17:27:25;1.77;;;1.17;;
18188;SDS011;9219;50.396;8.546;2023-07-24T17:29:58;1.23;;;1.10;;
18188;SDS011;9219;50.396;8.546;2023-07-24T17:32:28;2.60;;;1.50;;
18188;SDS011;9219;50.396;8.546;2023-07-24T17:34:57;1.20;;;1.10;;
18188;SDS011;9219;50.396;8.546;2023-07-24T17:37:25;1.47;;;1.17;;
18188;SDS011;9219;50.396;8.546;2023-07-24T17:40:05;1.63;;;1.00;;
18188;SDS011;9219;50.396;8.546;2023-07-24T17:42:39;1.23;;;1.10;;
18188;SDS011;9219;50.396;8.546;2023-07-24T17:50:13;1.27;;;1.17;;
18188;SDS011;9219;50.396;8.546;2023-07-24T17:52:41;1.53;;;1.20;;
18188;SDS011;9219;50.396;8.546;2023-07-24T17:55:12;1.17;;;1.03;;
18188;SDS011;9219;50.396;8.546;2023-07-24T17:57:42;2.87;;;0.97;;
18188;SDS011;9219;50.396;8.546;2023-07-24T18:00:16;1.70;;;1.17;;
18188;SDS011;9219;50.396;8.546;2023-07-24T18:02:44;1.17;;;0.80;;
18188;SDS011;9219;50.396;8.546;2023-07-24T18:05:13;1.57;;;1.10;;
18188;SDS011;9219;50.396;8.546;2023-07-24T18:12:43;2.57;;;1.30;;
18188;SDS011;9219;50.396;8.546;2023-07-24T18:15:12;3.40;;;1.10;;
18188;SDS011;9219;50.396;8.546;2023-07-24T18:17:40;1.93;;;1.17;;
18188;SDS011;9219;50.396;8.546;2023-07-24T18:20:11;1.23;;;1.03;;